Albion, Arkansas
Current Conditions -  °F | °C
As of 1:56 PM on Wednesday 28 Jan 2015 (Local Time) from KSRC Reporting Station
Clear Clear  
Wind Chill: 60°   Ceiling: Unl
Heat Index: 60°   Visibility: 10mi
Dew Point: 36°   Wind: 13mph
Humidity: 41%   Direction: 170°S
Pressure: 30.15"   Gusts: 20mph
Location:  35.2662°N, 91.8491°W
Report Text: KSRC 281956Z AUTO 17011G17KT 10SM CLR 16/02 A3015 RMK AO2 SLP219 T01560022 TSNO
Loading
Personal Weather Stations






























Interactive Weather Map New forecast layout! Learn more

10-Day Weather Forecast

Advertisements
Track Severe Weather on mobile